Time;durP1;ratioP1;P1;durP2;ratioP2;P2;SDS_P1;SDS_P2;PMS_P1;PMS_P2;Temp;Humidity;BMP_temperature;BMP_pressure;BME280_temperature;BME280_humidity;BME280_pressure;Samples;Min_cycle;Max_cycle;Signal;HPM_P1;HPM_P2
2023/12/17 00:02:03;;;;;;;6.43;4.40;;;;;;;;;;4987237;28;20093;-75
2023/12/17 00:04:28;;;;;;;9.02;4.13;;;;;;;;;;4985494;28;20046;-75
2023/12/17 00:06:54;;;;;;;10.05;5.28;;;;;;;;;;4986474;28;20449;-74
2023/12/17 00:09:19;;;;;;;7.78;4.80;;;;;;;;;;4984108;28;20102;-75
2023/12/17 00:11:44;;;;;;;8.30;4.88;;;;;;;;;;4985048;28;20478;-79
2023/12/17 00:14:14;;;;;;;5.47;4.03;;;;;;;;;;4982251;28;20062;-75
2023/12/17 00:16:39;;;;;;;8.38;4.63;;;;;;;;;;4985738;28;20081;-75
2023/12/17 00:19:05;;;;;;;9.00;4.65;;;;;;;;;;4987903;28;20043;-75
2023/12/17 00:21:30;;;;;;;5.25;4.30;;;;;;;;;;4984773;28;20034;-75
2023/12/17 00:23:55;;;;;;;7.28;4.57;;;;;;;;;;4985512;28;20375;-75
2023/12/17 00:26:21;;;;;;;7.55;3.78;;;;;;;;;;4984809;28;20118;-75
2023/12/17 00:28:46;;;;;;;7.78;5.15;;;;;;;;;;4984760;28;20497;-75
2023/12/17 00:31:11;;;;;;;7.00;4.45;;;;;;;;;;4983747;28;20042;-75
2023/12/17 00:33:36;;;;;;;10.00;4.97;;;;;;;;;;4989701;28;20475;-75
2023/12/17 00:36:02;;;;;;;9.73;5.70;;;;;;;;;;4986543;28;20058;-75
2023/12/17 00:38:27;;;;;;;5.05;4.38;;;;;;;;;;4985145;28;20042;-75
2023/12/17 00:40:52;;;;;;;6.85;4.97;;;;;;;;;;4981768;28;20038;-75
2023/12/17 00:43:18;;;;;;;10.02;5.30;;;;;;;;;;4987946;28;20042;-75
2023/12/17 00:45:43;;;;;;;26.73;5.68;;;;;;;;;;4985005;28;20034;-75
2023/12/17 00:48:09;;;;;;;8.52;4.97;;;;;;;;;;4987922;28;20109;-75
2023/12/17 00:50:34;;;;;;;9.13;4.90;;;;;;;;;;4985788;28;20022;-75
2023/12/17 00:53:00;;;;;;;7.35;4.93;;;;;;;;;;4987070;28;20053;-75
2023/12/17 00:55:25;;;;;;;7.55;4.95;;;;;;;;;;4983400;28;20498;-75
2023/12/17 00:57:50;;;;;;;13.02;6.38;;;;;;;;;;4979165;28;20030;-75
2023/12/17 01:00:16;;;;;;;8.80;5.80;;;;;;;;;;4984661;28;20104;-75
2023/12/17 01:02:42;;;;;;;10.02;5.65;;;;;;;;;;4984893;28;20108;-75
2023/12/17 01:05:07;;;;;;;8.98;4.75;;;;;;;;;;4988206;28;20044;-75
2023/12/17 01:07:33;;;;;;;8.57;5.22;;;;;;;;;;4989181;28;20049;-75
2023/12/17 01:09:58;;;;;;;9.80;5.00;;;;;;;;;;4984610;28;20029;-75
2023/12/17 01:12:24;;;;;;;11.95;6.07;;;;;;;;;;4986753;28;20108;-75
2023/12/17 01:14:49;;;;;;;10.63;6.10;;;;;;;;;;4986443;28;20596;-75
2023/12/17 01:17:14;;;;;;;8.65;5.13;;;;;;;;;;4982708;28;20514;-75
2023/12/17 01:19:39;;;;;;;9.82;5.72;;;;;;;;;;4983886;28;20034;-75
2023/12/17 01:22:05;;;;;;;8.82;4.82;;;;;;;;;;4985780;28;20034;-75
2023/12/17 01:24:32;;;;;;;6.80;4.60;;;;;;;;;;4979440;28;20298;-74
2023/12/17 01:26:57;;;;;;;8.38;5.15;;;;;;;;;;4984849;28;20507;-75
2023/12/17 01:29:23;;;;;;;10.20;4.28;;;;;;;;;;4984952;28;20034;-75
2023/12/17 01:31:48;;;;;;;4.57;3.58;;;;;;;;;;4982456;28;20034;-75
2023/12/17 01:34:13;;;;;;;7.70;4.50;;;;;;;;;;4972004;28;20112;-75
2023/12/17 01:36:39;;;;;;;8.27;4.40;;;;;;;;;;4983866;28;20057;-75
2023/12/17 01:39:04;;;;;;;8.27;4.68;;;;;;;;;;4983843;28;20030;-77
2023/12/17 01:41:29;;;;;;;9.93;5.72;;;;;;;;;;4986785;28;20026;-74
2023/12/17 01:43:55;;;;;;;9.10;6.18;;;;;;;;;;4986521;28;20033;-74
2023/12/17 01:46:21;;;;;;;9.60;5.57;;;;;;;;;;4989087;28;20030;-76
2023/12/17 01:48:46;;;;;;;7.25;5.03;;;;;;;;;;4990962;28;20042;-74
2023/12/17 01:51:11;;;;;;;8.35;5.40;;;;;;;;;;4984253;28;20033;-74
2023/12/17 01:53:37;;;;;;;8.23;4.90;;;;;;;;;;4990995;28;20101;-76
2023/12/17 01:56:03;;;;;;;14.57;5.20;;;;;;;;;;4987093;28;20035;-76
2023/12/17 01:58:29;;;;;;;6.32;4.45;;;;;;;;;;4990950;28;20104;-76
2023/12/17 02:00:57;;;;;;;9.75;4.68;;;;;;;;;;4988156;28;20041;-76
2023/12/17 02:03:23;;;;;;;6.95;4.25;;;;;;;;;;4990928;28;20401;-76
2023/12/17 02:05:48;;;;;;;7.70;4.75;;;;;;;;;;4989548;28;20106;-76
2023/12/17 02:08:14;;;;;;;7.43;4.50;;;;;;;;;;4990424;28;20026;-76
2023/12/17 02:10:39;;;;;;;5.45;4.13;;;;;;;;;;4988158;28;20034;-74
2023/12/17 02:13:04;;;;;;;5.57;3.88;;;;;;;;;;4990210;28;20508;-74
2023/12/17 02:15:30;;;;;;;6.03;4.60;;;;;;;;;;4989677;28;20557;-74
2023/12/17 02:17:55;;;;;;;8.35;4.55;;;;;;;;;;4989812;28;20074;-77
2023/12/17 02:20:20;;;;;;;7.32;4.70;;;;;;;;;;4973354;28;20290;-74
2023/12/17 02:22:49;;;;;;;8.93;5.00;;;;;;;;;;4988940;28;20486;-74
2023/12/17 02:25:15;;;;;;;9.63;4.35;;;;;;;;;;4988113;28;20503;-75
2023/12/17 02:27:43;;;;;;;5.47;4.18;;;;;;;;;;4986965;28;20026;-75
2023/12/17 02:30:09;;;;;;;7.55;4.43;;;;;;;;;;4992487;28;20394;-75
2023/12/17 02:32:34;;;;;;;8.88;5.18;;;;;;;;;;4984744;28;20031;-74
2023/12/17 02:35:00;;;;;;;5.30;4.18;;;;;;;;;;4986172;28;20046;-74
2023/12/17 02:37:25;;;;;;;4.68;2.60;;;;;;;;;;4985682;28;20046;-74
2023/12/17 02:39:50;;;;;;;7.03;5.10;;;;;;;;;;4981196;28;20030;-74
2023/12/17 02:42:17;;;;;;;5.80;3.25;;;;;;;;;;4988058;28;20046;-74
2023/12/17 02:44:42;;;;;;;7.15;3.83;;;;;;;;;;4988435;28;20471;-74
2023/12/17 02:47:07;;;;;;;7.03;4.70;;;;;;;;;;4973383;28;20273;-74
2023/12/17 02:49:33;;;;;;;6.10;4.03;;;;;;;;;;4989802;28;20045;-74
2023/12/17 02:51:59;;;;;;;6.82;4.40;;;;;;;;;;4987416;28;20031;-75
2023/12/17 02:54:24;;;;;;;5.50;4.07;;;;;;;;;;4973578;28;20053;-74
2023/12/17 02:56:51;;;;;;;5.38;3.80;;;;;;;;;;4988186;28;20633;-74
2023/12/17 02:59:16;;;;;;;42.08;5.35;;;;;;;;;;4990905;28;20046;-74
2023/12/17 03:01:43;;;;;;;56.05;4.68;;;;;;;;;;4989268;28;20394;-75
2023/12/17 03:04:10;;;;;;;5.90;3.88;;;;;;;;;;4991325;28;20042;-75
2023/12/17 03:06:36;;;;;;;6.20;4.18;;;;;;;;;;4984609;28;20041;-74
2023/12/17 03:09:02;;;;;;;77.07;6.82;;;;;;;;;;4990554;28;20050;-74
2023/12/17 03:11:27;;;;;;;9.70;4.25;;;;;;;;;;4987141;28;20495;-75
2023/12/17 03:13:52;;;;;;;6.82;5.07;;;;;;;;;;4986335;28;20050;-74
2023/12/17 03:16:18;;;;;;;9.73;4.13;;;;;;;;;;4986101;28;20050;-75
2023/12/17 03:18:43;;;;;;;8.27;4.25;;;;;;;;;;4989180;28;20042;-75
2023/12/17 03:21:08;;;;;;;8.48;4.32;;;;;;;;;;4989302;28;20379;-75
2023/12/17 03:23:34;;;;;;;19.48;5.30;;;;;;;;;;4984196;28;20414;-75
2023/12/17 03:26:00;;;;;;;8.30;4.90;;;;;;;;;;4987987;28;20049;-75
2023/12/17 03:28:25;;;;;;;62.75;6.47;;;;;;;;;;4990156;28;20038;-75
2023/12/17 03:30:50;;;;;;;5.65;3.83;;;;;;;;;;4990625;28;20351;-76
2023/12/17 03:33:15;;;;;;;7.95;4.07;;;;;;;;;;4986352;28;20023;-76
2023/12/17 03:35:41;;;;;;;7.90;4.53;;;;;;;;;;4991145;28;20072;-75
2023/12/17 03:38:06;;;;;;;6.38;3.95;;;;;;;;;;4979578;28;20030;-76
2023/12/17 03:40:32;;;;;;;8.70;4.43;;;;;;;;;;4983436;28;20038;-75
2023/12/17 03:42:57;;;;;;;86.70;7.32;;;;;;;;;;4989583;28;20038;-75
2023/12/17 03:45:22;;;;;;;5.55;3.95;;;;;;;;;;4988048;28;20197;-75
2023/12/17 03:47:48;;;;;;;3.67;3.08;;;;;;;;;;4987919;28;20026;-75
2023/12/17 03:50:18;;;;;;;4.65;3.45;;;;;;;;;;4988845;28;20038;-75
2023/12/17 03:52:45;;;;;;;7.32;3.25;;;;;;;;;;4981281;28;20090;-75
2023/12/17 03:55:11;;;;;;;4.97;3.58;;;;;;;;;;4988219;28;20105;-75
2023/12/17 03:57:36;;;;;;;6.32;3.78;;;;;;;;;;5021483;22;20020;-84
2023/12/17 04:00:03;;;;;;;5.35;3.40;;;;;;;;;;5058881;28;20091;-83
2023/12/17 04:02:28;;;;;;;5.72;3.53;;;;;;;;;;5058666;28;20055;-83
2023/12/17 04:04:54;;;;;;;5.80;3.63;;;;;;;;;;5058542;28;20041;-83
2023/12/17 04:07:19;;;;;;;8.95;3.85;;;;;;;;;;5044545;28;20044;-85
2023/12/17 04:09:44;;;;;;;25.42;4.25;;;;;;;;;;5038285;28;20159;-83
2023/12/17 04:12:10;;;;;;;6.35;3.67;;;;;;;;;;5037984;28;20041;-84
2023/12/17 04:14:36;;;;;;;5.85;3.40;;;;;;;;;;5037309;28;20033;-84
2023/12/17 04:17:01;;;;;;;56.95;6.45;;;;;;;;;;5038229;28;20064;-82
2023/12/17 04:19:26;;;;;;;5.40;3.38;;;;;;;;;;5036937;28;20095;-82
2023/12/17 04:21:52;;;;;;;7.40;3.80;;;;;;;;;;5037076;28;20038;-84
2023/12/17 04:24:17;;;;;;;8.02;4.22;;;;;;;;;;5036233;28;20405;-83
2023/12/17 04:26:42;;;;;;;8.93;4.22;;;;;;;;;;5036626;28;20036;-83
2023/12/17 04:29:07;;;;;;;6.43;3.78;;;;;;;;;;5037256;28;20039;-84
2023/12/17 04:31:33;;;;;;;5.60;4.13;;;;;;;;;;5037139;28;20063;-84
2023/12/17 04:33:58;;;;;;;6.75;4.38;;;;;;;;;;5037194;28;20041;-84
2023/12/17 04:36:24;;;;;;;11.02;4.95;;;;;;;;;;5035621;28;20035;-84
2023/12/17 04:38:49;;;;;;;7.20;5.13;;;;;;;;;;5037159;28;20373;-84
2023/12/17 04:41:15;;;;;;;9.52;5.00;;;;;;;;;;5050167;28;20093;-83
2023/12/17 04:43:40;;;;;;;6.18;4.38;;;;;;;;;;5035462;28;20049;-83
2023/12/17 04:46:05;;;;;;;6.28;4.68;;;;;;;;;;5053129;28;20055;-84
2023/12/17 04:48:31;;;;;;;6.93;4.50;;;;;;;;;;5036237;28;20082;-83
2023/12/17 04:50:56;;;;;;;8.20;4.65;;;;;;;;;;5046742;28;20029;-82
2023/12/17 04:53:21;;;;;;;6.88;3.83;;;;;;;;;;5056442;28;20051;-83
2023/12/17 04:55:46;;;;;;;6.68;4.40;;;;;;;;;;5038416;28;20506;-82
2023/12/17 04:58:12;;;;;;;5.93;4.60;;;;;;;;;;5041267;28;20034;-82
2023/12/17 05:00:37;;;;;;;7.45;4.00;;;;;;;;;;5036151;28;20037;-83
2023/12/17 05:03:02;;;;;;;6.55;4.00;;;;;;;;;;5036780;28;20424;-83
2023/12/17 05:05:28;;;;;;;6.20;4.07;;;;;;;;;;5036392;28;20543;-82
2023/12/17 05:07:53;;;;;;;5.35;3.95;;;;;;;;;;5035473;28;20041;-83
2023/12/17 05:10:18;;;;;;;4.35;3.55;;;;;;;;;;5047813;28;20041;-82
2023/12/17 05:12:43;;;;;;;6.07;4.30;;;;;;;;;;5054659;28;20099;-83
2023/12/17 05:15:09;;;;;;;9.00;4.30;;;;;;;;;;5056393;28;20032;-83
2023/12/17 05:17:34;;;;;;;7.88;4.45;;;;;;;;;;5056090;28;20102;-84
2023/12/17 05:19:59;;;;;;;14.48;4.18;;;;;;;;;;5054934;28;20053;-83
2023/12/17 05:22:24;;;;;;;6.72;4.47;;;;;;;;;;5054688;28;20057;-84
2023/12/17 05:24:50;;;;;;;6.15;3.92;;;;;;;;;;5056213;28;20032;-82
2023/12/17 05:27:15;;;;;;;6.20;3.60;;;;;;;;;;5043950;28;20026;-83
2023/12/17 05:29:41;;;;;;;6.25;4.20;;;;;;;;;;5036782;28;20040;-84
2023/12/17 05:32:06;;;;;;;6.70;3.85;;;;;;;;;;5043421;28;20033;-84
2023/12/17 05:34:31;;;;;;;6.47;3.83;;;;;;;;;;5035887;28;20057;-82
2023/12/17 05:36:57;;;;;;;5.82;3.75;;;;;;;;;;5034610;28;20463;-83
2023/12/17 05:39:22;;;;;;;7.20;4.30;;;;;;;;;;5041645;28;20040;-86
2023/12/17 05:41:47;;;;;;;6.22;3.85;;;;;;;;;;5054292;28;20037;-83
2023/12/17 05:44:12;;;;;;;8.15;3.70;;;;;;;;;;5036478;28;20057;-82
2023/12/17 05:46:38;;;;;;;5.53;3.42;;;;;;;;;;5036400;28;20045;-84
2023/12/17 05:49:03;;;;;;;6.72;3.20;;;;;;;;;;5046900;28;20033;-83
2023/12/17 05:51:28;;;;;;;4.47;3.05;;;;;;;;;;5056558;28;20078;-83
2023/12/17 05:53:54;;;;;;;21.17;4.78;;;;;;;;;;5039360;28;20119;-83
2023/12/17 05:56:19;;;;;;;6.35;3.20;;;;;;;;;;5035359;28;20539;-83
2023/12/17 05:58:45;;;;;;;5.57;3.30;;;;;;;;;;5036887;28;20050;-83
2023/12/17 06:01:10;;;;;;;6.50;3.25;;;;;;;;;;5040072;28;20088;-84
2023/12/17 06:03:36;;;;;;;4.90;3.08;;;;;;;;;;5055223;28;20036;-83
2023/12/17 06:06:01;;;;;;;3.53;3.22;;;;;;;;;;5037818;28;20029;-83
2023/12/17 06:08:26;;;;;;;3.28;2.63;;;;;;;;;;5050215;28;20033;-84
2023/12/17 06:10:51;;;;;;;5.10;3.63;;;;;;;;;;5055797;28;20400;-83
2023/12/17 06:13:17;;;;;;;4.85;2.90;;;;;;;;;;5055736;28;20037;-83
2023/12/17 06:15:42;;;;;;;3.67;2.40;;;;;;;;;;5040310;28;20037;-83
2023/12/17 06:18:08;;;;;;;5.15;3.70;;;;;;;;;;5039345;28;20029;-84
2023/12/17 06:20:33;;;;;;;5.88;3.03;;;;;;;;;;5049642;28;20052;-83
2023/12/17 06:22:58;;;;;;;5.25;2.88;;;;;;;;;;5043704;28;20033;-84
2023/12/17 06:25:24;;;;;;;5.57;3.13;;;;;;;;;;5035675;28;20029;-83
2023/12/17 06:27:52;;;;;;;6.20;3.22;;;;;;;;;;5045293;28;20116;-82
2023/12/17 06:30:18;;;;;;;5.38;2.85;;;;;;;;;;5055863;28;20044;-82
2023/12/17 06:32:44;;;;;;;3.85;2.38;;;;;;;;;;5047797;28;20017;-84
2023/12/17 06:35:09;;;;;;;6.00;3.17;;;;;;;;;;5059136;28;20504;-84
2023/12/17 06:37:34;;;;;;;2.25;2.05;;;;;;;;;;5050681;28;20033;-83
2023/12/17 06:40:00;;;;;;;2.10;1.98;;;;;;;;;;5042508;28;20045;-83
2023/12/17 06:42:25;;;;;;;5.10;2.30;;;;;;;;;;5051086;28;20097;-81
2023/12/17 06:44:50;;;;;;;2.17;1.92;;;;;;;;;;5059313;28;20040;-82
2023/12/17 06:47:17;;;;;;;2.80;2.15;;;;;;;;;;5043862;28;20060;-84
2023/12/17 06:49:42;;;;;;;3.65;2.50;;;;;;;;;;5052838;28;20038;-83
2023/12/17 06:52:08;;;;;;;2.67;1.80;;;;;;;;;;5045699;28;20528;-83
2023/12/17 06:54:33;;;;;;;2.22;1.75;;;;;;;;;;5058187;28;20091;-83
2023/12/17 06:56:58;;;;;;;4.80;1.95;;;;;;;;;;5050707;28;20021;-83
2023/12/17 06:59:24;;;;;;;2.67;2.15;;;;;;;;;;5056398;28;20435;-83
2023/12/17 07:01:49;;;;;;;6.55;2.10;;;;;;;;;;5055948;28;20124;-81
2023/12/17 07:04:14;;;;;;;2.45;2.25;;;;;;;;;;5059444;28;20033;-83
2023/12/17 07:06:40;;;;;;;4.93;2.13;;;;;;;;;;5059002;28;20032;-83
2023/12/17 07:09:05;;;;;;;6.32;2.10;;;;;;;;;;5042720;28;20025;-84
2023/12/17 07:11:30;;;;;;;2.72;1.75;;;;;;;;;;5043755;28;20168;-84
2023/12/17 07:13:56;;;;;;;5.70;3.58;;;;;;;;;;5047661;28;20044;-82
2023/12/17 07:16:22;;;;;;;2.95;2.40;;;;;;;;;;5043247;28;20037;-82
2023/12/17 07:18:48;;;;;;;3.97;2.72;;;;;;;;;;5056805;28;20051;-82
2023/12/17 07:21:13;;;;;;;11.85;6.38;;;;;;;;;;5055459;28;20029;-84
2023/12/17 07:23:38;;;;;;;11.80;5.93;;;;;;;;;;5064558;28;20037;-82
2023/12/17 07:26:04;;;;;;;5.30;3.15;;;;;;;;;;5064731;28;20029;-82
2023/12/17 07:28:29;;;;;;;3.83;2.55;;;;;;;;;;5066558;28;20045;-83
2023/12/17 07:30:54;;;;;;;5.53;3.33;;;;;;;;;;5066568;28;20028;-81
2023/12/17 07:33:19;;;;;;;3.40;2.90;;;;;;;;;;5069370;28;20021;-84
2023/12/17 07:35:45;;;;;;;6.20;2.55;;;;;;;;;;5068567;28;20029;-84
2023/12/17 07:38:10;;;;;;;3.38;2.45;;;;;;;;;;5057289;28;20037;-85
2023/12/17 07:40:35;;;;;;;5.93;3.95;;;;;;;;;;5038592;28;20057;-85
2023/12/17 07:43:01;;;;;;;3.83;2.88;;;;;;;;;;5045874;28;20039;-84
2023/12/17 07:45:26;;;;;;;5.68;3.47;;;;;;;;;;5050230;28;20029;-84
2023/12/17 07:47:51;;;;;;;4.93;3.38;;;;;;;;;;5051064;28;20052;-83
2023/12/17 07:50:16;;;;;;;3.80;3.05;;;;;;;;;;5042576;28;20029;-83
2023/12/17 07:52:42;;;;;;;4.50;2.90;;;;;;;;;;5055729;28;20140;-83
2023/12/17 07:55:08;;;;;;;13.77;3.85;;;;;;;;;;5057728;28;20041;-83
2023/12/17 07:57:33;;;;;;;6.03;3.35;;;;;;;;;;5050105;28;20037;-84
2023/12/17 07:59:58;;;;;;;3.13;2.60;;;;;;;;;;5049073;28;20028;-82
2023/12/17 08:02:24;;;;;;;3.10;2.25;;;;;;;;;;5065969;28;20485;-84
2023/12/17 08:04:50;;;;;;;2.50;2.22;;;;;;;;;;5065395;28;20044;-83
2023/12/17 08:07:15;;;;;;;5.30;2.47;;;;;;;;;;5046277;28;20493;-85
2023/12/17 08:09:40;;;;;;;3.58;2.90;;;;;;;;;;5051988;28;20500;-84
2023/12/17 08:12:07;;;;;;;4.47;2.80;;;;;;;;;;5039989;28;20120;-83
2023/12/17 08:14:33;;;;;;;4.25;2.85;;;;;;;;;;5048102;28;20622;-84
2023/12/17 08:16:58;;;;;;;9.27;3.40;;;;;;;;;;5044484;28;20060;-85
2023/12/17 08:19:24;;;;;;;6.15;4.40;;;;;;;;;;5045982;28;20037;-85
2023/12/17 08:21:49;;;;;;;5.65;3.30;;;;;;;;;;5049830;28;20033;-83
2023/12/17 08:24:14;;;;;;;3.92;3.00;;;;;;;;;;5052652;28;20017;-85
2023/12/17 08:26:39;;;;;;;7.55;3.97;;;;;;;;;;5053258;28;20120;-85
2023/12/17 08:29:04;;;;;;;5.93;4.30;;;;;;;;;;5055214;28;20045;-84
2023/12/17 08:31:30;;;;;;;8.30;4.18;;;;;;;;;;5044229;28;20033;-84
2023/12/17 08:33:55;;;;;;;7.38;4.03;;;;;;;;;;5053950;28;20049;-83
2023/12/17 08:36:25;;;;;;;41.33;4.25;;;;;;;;;;5044212;28;20396;-84
2023/12/17 08:38:50;;;;;;;5.75;3.63;;;;;;;;;;5047272;28;20073;-86
2023/12/17 08:41:16;;;;;;;3.53;3.17;;;;;;;;;;5041966;28;20106;-85
2023/12/17 08:43:41;;;;;;;6.05;3.25;;;;;;;;;;5050098;28;20010;-85
2023/12/17 08:46:06;;;;;;;10.65;3.72;;;;;;;;;;5045798;28;20044;-85
2023/12/17 08:48:32;;;;;;;9.63;4.00;;;;;;;;;;5037935;28;20034;-83
2023/12/17 08:50:57;;;;;;;5.95;3.75;;;;;;;;;;5046589;28;20033;-84
2023/12/17 08:53:23;;;;;;;4.85;3.60;;;;;;;;;;5044296;28;20478;-84
2023/12/17 08:55:49;;;;;;;4.03;3.40;;;;;;;;;;5044362;28;20069;-82
2023/12/17 08:58:14;;;;;;;4.35;3.15;;;;;;;;;;5045935;28;20041;-83
2023/12/17 09:00:39;;;;;;;5.28;3.78;;;;;;;;;;5051616;28;20112;-85
2023/12/17 09:03:05;;;;;;;5.88;3.92;;;;;;;;;;5057152;28;20028;-86
2023/12/17 09:05:30;;;;;;;4.82;3.47;;;;;;;;;;5052533;28;20072;-86
2023/12/17 09:07:56;;;;;;;5.10;3.67;;;;;;;;;;5040135;28;20068;-85
2023/12/17 09:10:23;;;;;;;4.28;3.58;;;;;;;;;;5048978;28;20033;-85
2023/12/17 09:12:49;;;;;;;6.40;3.70;;;;;;;;;;5047856;28;20029;-85
2023/12/17 09:15:15;;;;;;;6.28;4.00;;;;;;;;;;5041154;28;20033;-85
2023/12/17 09:17:42;;;;;;;5.00;3.90;;;;;;;;;;5055169;28;20025;-85
2023/12/17 09:20:08;;;;;;;5.95;3.63;;;;;;;;;;5048106;28;20247;-84
2023/12/17 09:22:33;;;;;;;11.25;4.20;;;;;;;;;;5054167;28;20511;-84
2023/12/17 09:24:59;;;;;;;4.43;3.40;;;;;;;;;;5044439;28;20405;-85
2023/12/17 09:27:24;;;;;;;7.63;4.22;;;;;;;;;;5053539;28;20036;-84
2023/12/17 09:29:50;;;;;;;4.05;3.28;;;;;;;;;;5055350;28;20031;-85
2023/12/17 09:32:15;;;;;;;4.47;3.22;;;;;;;;;;5050194;28;20368;-84
2023/12/17 09:34:40;;;;;;;5.60;3.95;;;;;;;;;;5046986;28;20405;-83
2023/12/17 09:37:05;;;;;;;10.23;4.47;;;;;;;;;;5051336;28;20033;-84
2023/12/17 09:39:31;;;;;;;6.78;3.58;;;;;;;;;;5049711;28;20069;-84
2023/12/17 09:41:57;;;;;;;5.07;3.40;;;;;;;;;;5049817;28;20033;-82
2023/12/17 09:44:23;;;;;;;4.05;3.20;;;;;;;;;;5053576;28;20028;-86
2023/12/17 09:46:48;;;;;;;4.43;3.33;;;;;;;;;;5047124;28;20033;-85
2023/12/17 09:49:13;;;;;;;6.35;2.97;;;;;;;;;;5049270;28;20052;-86
2023/12/17 09:51:42;;;;;;;7.22;3.70;;;;;;;;;;5050777;28;20121;-84
2023/12/17 09:54:07;;;;;;;4.65;3.28;;;;;;;;;;5048173;28;20032;-86
2023/12/17 09:56:32;;;;;;;5.72;3.38;;;;;;;;;;5055363;28;20609;-85
2023/12/17 09:58:57;;;;;;;4.95;2.97;;;;;;;;;;5049656;28;20037;-81
2023/12/17 10:01:23;;;;;;;6.25;3.13;;;;;;;;;;5038988;28;20029;-80
2023/12/17 10:03:49;;;;;;;6.93;4.18;;;;;;;;;;5048377;28;20037;-82
2023/12/17 10:06:18;;;;;;;4.20;3.13;;;;;;;;;;5045470;28;20644;-82
2023/12/17 10:08:44;;;;;;;5.00;3.30;;;;;;;;;;5049539;28;20394;-81
2023/12/17 10:11:09;;;;;;;6.20;3.80;;;;;;;;;;5049493;28;20045;-82
2023/12/17 10:13:34;;;;;;;5.05;3.95;;;;;;;;;;5044871;28;20052;-83
2023/12/17 10:16:00;;;;;;;3.88;3.42;;;;;;;;;;5042314;28;20034;-82
2023/12/17 10:18:25;;;;;;;3.72;3.20;;;;;;;;;;5048464;28;20040;-82
2023/12/17 10:20:50;;;;;;;5.97;3.40;;;;;;;;;;5054348;28;20686;-83
2023/12/17 10:23:16;;;;;;;5.53;3.10;;;;;;;;;;5049352;28;21506;-81
2023/12/17 10:25:43;;;;;;;3.80;3.00;;;;;;;;;;5045391;28;20048;-82
2023/12/17 10:28:10;;;;;;;3.78;2.63;;;;;;;;;;5049811;28;20045;-82
2023/12/17 10:30:36;;;;;;;4.10;2.88;;;;;;;;;;5045327;28;20043;-83
2023/12/17 10:33:03;;;;;;;4.70;2.80;;;;;;;;;;5051730;28;20033;-82
2023/12/17 10:35:30;;;;;;;5.15;2.75;;;;;;;;;;5048500;28;20123;-83
2023/12/17 10:38:00;;;;;;;4.40;3.10;;;;;;;;;;5039865;28;20041;-80
2023/12/17 10:40:28;;;;;;;5.30;3.35;;;;;;;;;;5043584;28;20038;-84
2023/12/17 10:42:55;;;;;;;4.63;2.67;;;;;;;;;;5053865;28;20033;-84
2023/12/17 10:45:21;;;;;;;4.05;2.47;;;;;;;;;;5053759;28;20067;-84
2023/12/17 10:47:56;;;;;;;7.85;5.03;;;;;;;;;;5052411;28;20028;-84
2023/12/17 10:50:25;;;;;;;5.78;3.70;;;;;;;;;;5046439;28;20107;-83
2023/12/17 10:52:50;;;;;;;6.88;4.22;;;;;;;;;;5049871;28;20048;-83
2023/12/17 10:55:17;;;;;;;7.85;5.43;;;;;;;;;;5051044;28;20057;-83
2023/12/17 10:57:56;;;;;;;7.93;4.63;;;;;;;;;;5045666;28;20037;-84
2023/12/17 11:00:25;;;;;;;6.63;4.32;;;;;;;;;;5046044;28;20059;-83
2023/12/17 11:02:52;;;;;;;6.90;4.72;;;;;;;;;;5044404;28;20025;-83
2023/12/17 11:05:18;;;;;;;7.50;4.07;;;;;;;;;;5063500;28;20049;-83
2023/12/17 11:07:43;;;;;;;7.40;3.90;;;;;;;;;;5043602;28;20094;-83
2023/12/17 11:10:12;;;;;;;5.95;3.75;;;;;;;;;;5037582;28;20044;-82
2023/12/17 11:12:39;;;;;;;5.45;3.63;;;;;;;;;;5049404;28;20048;-83
2023/12/17 11:15:05;;;;;;;6.18;3.75;;;;;;;;;;5044555;28;20178;-83
2023/12/17 11:17:31;;;;;;;5.75;3.75;;;;;;;;;;5049205;28;20525;-83
2023/12/17 11:20:00;;;;;;;4.82;3.58;;;;;;;;;;5043279;28;20419;-83
2023/12/17 11:22:26;;;;;;;4.15;3.00;;;;;;;;;;5040435;28;20033;-82
2023/12/17 11:24:58;;;;;;;4.15;2.67;;;;;;;;;;5045863;28;20037;-82
2023/12/17 11:27:24;;;;;;;5.57;2.97;;;;;;;;;;5039972;28;20037;-83
2023/12/17 11:29:50;;;;;;;3.47;2.42;;;;;;;;;;5045100;28;20017;-83
2023/12/17 11:32:32;;;;;;;5.20;2.85;;;;;;;;;;5051757;28;20119;-83
2023/12/17 11:34:58;;;;;;;4.20;2.88;;;;;;;;;;5041112;28;20037;-83
2023/12/17 11:37:29;;;;;;;4.75;2.85;;;;;;;;;;5045185;28;20086;-83
2023/12/17 11:39:54;;;;;;;2.67;2.25;;;;;;;;;;5046671;28;20038;-84
2023/12/17 11:42:20;;;;;;;4.70;2.38;;;;;;;;;;5043276;28;20036;-84
2023/12/17 11:44:48;;;;;;;2.90;2.28;;;;;;;;;;5048002;28;20045;-84
2023/12/17 11:47:14;;;;;;;4.32;2.55;;;;;;;;;;5051385;28;20079;-82
2023/12/17 11:49:40;;;;;;;3.10;2.40;;;;;;;;;;5045971;28;20084;-83
2023/12/17 11:52:14;;;;;;;2.13;1.88;;;;;;;;;;5046070;28;20045;-81
2023/12/17 11:54:40;;;;;;;5.13;2.38;;;;;;;;;;5052806;28;20452;-80
2023/12/17 11:57:23;;;;;;;2.00;1.80;;;;;;;;;;5044682;28;20029;-82
2023/12/17 11:59:50;;;;;;;2.65;1.90;;;;;;;;;;5050212;28;20036;-79
2023/12/17 12:02:17;;;;;;;3.90;1.75;;;;;;;;;;5038282;28;20033;-82
2023/12/17 12:04:43;;;;;;;2.20;1.58;;;;;;;;;;5042571;28;20119;-82
2023/12/17 12:07:09;;;;;;;2.13;1.65;;;;;;;;;;5048623;28;20509;-81
2023/12/17 12:09:35;;;;;;;1.60;1.50;;;;;;;;;;5047331;28;20519;-83
2023/12/17 12:12:00;;;;;;;3.90;1.40;;;;;;;;;;5058313;28;20025;-83
2023/12/17 12:14:25;;;;;;;2.10;1.25;;;;;;;;;;5047487;28;20446;-84
2023/12/17 12:16:52;;;;;;;1.40;1.30;;;;;;;;;;5046885;28;20457;-84
2023/12/17 12:19:18;;;;;;;1.52;1.30;;;;;;;;;;5045676;28;20036;-83
2023/12/17 12:21:43;;;;;;;2.20;1.73;;;;;;;;;;5045510;28;20044;-84
2023/12/17 12:24:10;;;;;;;1.63;1.50;;;;;;;;;;5045309;28;20432;-85
2023/12/17 12:26:35;;;;;;;2.03;1.63;;;;;;;;;;5049535;28;20020;-83
2023/12/17 12:29:04;;;;;;;1.58;1.38;;;;;;;;;;5041979;28;20041;-84
2023/12/17 12:31:29;;;;;;;1.75;1.25;;;;;;;;;;5046679;28;20045;-83
2023/12/17 12:33:58;;;;;;;1.55;1.17;;;;;;;;;;5054055;28;20055;-85
2023/12/17 12:36:23;;;;;;;1.30;1.20;;;;;;;;;;5050138;28;20039;-84
2023/12/17 12:39:01;;;;;;;1.08;1.08;;;;;;;;;;5044767;28;20296;-84
2023/12/17 12:41:28;;;;;;;1.20;1.10;;;;;;;;;;5043311;28;20092;-82
2023/12/17 12:43:55;;;;;;;1.20;1.10;;;;;;;;;;5051121;28;20036;-82
2023/12/17 12:46:21;;;;;;;0.95;0.95;;;;;;;;;;5050029;28;20163;-83
2023/12/17 12:48:52;;;;;;;1.70;1.08;;;;;;;;;;5042455;28;20030;-83
2023/12/17 12:51:18;;;;;;;1.23;1.13;;;;;;;;;;5042104;28;20481;-83
2023/12/17 12:53:44;;;;;;;1.58;1.10;;;;;;;;;;5052646;28;20045;-84
2023/12/17 12:56:09;;;;;;;1.20;1.10;;;;;;;;;;5049131;28;20100;-83
2023/12/17 12:58:35;;;;;;;1.40;1.27;;;;;;;;;;5045927;28;20033;-83
2023/12/17 13:01:01;;;;;;;1.00;1.00;;;;;;;;;;5052082;28;20489;-83
2023/12/17 13:03:26;;;;;;;4.00;0.98;;;;;;;;;;5046403;28;20128;-83
2023/12/17 13:05:51;;;;;;;1.00;1.00;;;;;;;;;;5044472;28;20083;-83
2023/12/17 13:08:20;;;;;;;0.98;0.98;;;;;;;;;;5053491;28;20029;-82
2023/12/17 13:10:45;;;;;;;1.10;1.08;;;;;;;;;;5050546;28;20029;-83
2023/12/17 13:13:11;;;;;;;1.20;1.10;;;;;;;;;;5056245;28;20899;-83
2023/12/17 13:15:36;;;;;;;1.80;1.00;;;;;;;;;;5053728;28;20036;-83
2023/12/17 13:18:02;;;;;;;0.95;0.90;;;;;;;;;;5050560;28;20049;-83
2023/12/17 13:20:27;;;;;;;0.90;0.90;;;;;;;;;;5051296;28;20488;-83
2023/12/17 13:22:54;;;;;;;1.27;1.00;;;;;;;;;;5040611;28;20033;-84
2023/12/17 13:25:20;;;;;;;1.83;1.20;;;;;;;;;;5046723;28;20093;-84
2023/12/17 13:27:46;;;;;;;1.88;1.08;;;;;;;;;;5043396;28;20448;-82
2023/12/17 13:30:12;;;;;;;1.23;1.20;;;;;;;;;;5046776;28;20107;-85
2023/12/17 13:32:37;;;;;;;3.25;1.20;;;;;;;;;;5051006;28;20107;-84
2023/12/17 13:35:03;;;;;;;1.65;1.55;;;;;;;;;;5069500;28;20652;-84
2023/12/17 13:37:28;;;;;;;1.20;1.20;;;;;;;;;;5049437;28;20033;-84
2023/12/17 13:39:54;;;;;;;3.10;1.38;;;;;;;;;;5052582;28;20397;-82
2023/12/17 13:42:19;;;;;;;1.27;1.20;;;;;;;;;;5055546;28;20492;-83
2023/12/17 13:44:44;;;;;;;1.23;1.20;;;;;;;;;;5054694;28;20079;-85
2023/12/17 13:47:09;;;;;;;1.17;1.10;;;;;;;;;;5058337;28;20039;-84
2023/12/17 13:49:37;;;;;;;1.38;1.02;;;;;;;;;;5054650;28;20029;-82
2023/12/17 13:52:03;;;;;;;1.42;1.33;;;;;;;;;;5058849;28;20116;-83
2023/12/17 13:54:29;;;;;;;1.50;1.40;;;;;;;;;;5054762;28;20465;-85
2023/12/17 13:56:54;;;;;;;1.70;1.60;;;;;;;;;;5045698;28;20017;-82
2023/12/17 13:59:20;;;;;;;2.67;1.50;;;;;;;;;;5073054;28;20041;-83
2023/12/17 14:01:47;;;;;;;3.83;1.60;;;;;;;;;;5050149;28;20060;-83
2023/12/17 14:04:12;;;;;;;1.20;1.20;;;;;;;;;;5056503;28;20113;-83
2023/12/17 14:06:37;;;;;;;1.27;1.27;;;;;;;;;;5054692;28;20076;-82
2023/12/17 14:09:02;;;;;;;2.72;1.40;;;;;;;;;;5050917;28;20038;-82
2023/12/17 14:11:28;;;;;;;1.40;1.30;;;;;;;;;;5051798;28;20045;-83
2023/12/17 14:13:53;;;;;;;1.30;1.20;;;;;;;;;;5048338;28;20034;-82
2023/12/17 14:16:22;;;;;;;1.73;1.35;;;;;;;;;;5052587;28;20128;-81
2023/12/17 14:18:48;;;;;;;2.00;1.38;;;;;;;;;;5051605;28;20036;-83
2023/12/17 14:21:13;;;;;;;1.20;1.10;;;;;;;;;;5045624;28;20025;-82
2023/12/17 14:23:38;;;;;;;1.30;1.20;;;;;;;;;;5049847;28;20021;-83
2023/12/17 14:26:04;;;;;;;1.20;1.10;;;;;;;;;;5043778;28;20448;-83
2023/12/17 14:28:29;;;;;;;4.03;1.30;;;;;;;;;;5059506;28;20036;-83
2023/12/17 14:30:54;;;;;;;1.38;1.27;;;;;;;;;;5060458;28;20033;-83
2023/12/17 14:33:20;;;;;;;1.52;1.40;;;;;;;;;;5046528;28;20025;-84
2023/12/17 14:35:45;;;;;;;1.30;1.25;;;;;;;;;;5060743;28;20033;-83